KMVN/MVN METAR and TAF weather

Enter ICAO airport designator
Station Type Date Time Source
KMVN METAR 2022/01/19 20:56 UTC NOAA

KMVN 192056Z AUTO 35008KT 10SM BKN075 OVC090 M01/M07 A3015 RMK AO2 SLP219 60000 T10111067 53014 FZRANO


Station Type Date Time Source
KMVN Decoded METAR 2022/01/19 20:56 UTC NOAA

Mount Vernon, Mount Vernon Airport, IL, United States (KMVN) 38-19N 088-52W
Jan 19, 2022 - 03:56 PM EST / 2022.01.19 2056 UTC
Wind: from the N (350 degrees) at 9 MPH (8 KT):0
Visibility: 10 mile(s):0
Sky conditions: overcast
Temperature: 30.0 F (-1.1 C)
Windchill: 21 F (-6 C):1
Dew Point: 19.9 F (-6.7 C)
Relative Humidity: 65%
Pressure (altimeter): 30.15 in. Hg (1020 hPa)
Pressure tendency: 0.04 inches (1.4 hPa) higher than three hours ago
ob: KMVN 192056Z AUTO 35008KT 10SM BKN075 OVC090 M01/M07 A3015 RMK AO2 SLP219 60000 T10111067 53014 FZRANO
cycle: 21

Station Type Date Time Source
KMVN TAF 2022/01/19 18:21 UTC NOAA

TAF KMVN 191720Z 1918/2018 35010KT P6SM -RA OVC070
FM191930 35010G18KT P6SM -SN OVC050
FM200000 35011G19KT P6SM OVC050
FM201000 35009KT P6SM SCT250

Example: see airport list